Bunyola, Spain
Current Conditions -  °F | °C
As of 6:30 PM on Saturday 20 Dec 2014 (Local Time) from LEPA Reporting Station
Few Clouds Few Clouds  
Wind Chill: 54°   Ceiling: Unl
Heat Index: 54°   Visibility: 6mi
Dew Point: 50°   Wind: 1mph
Humidity: 88%   Direction: NA
Pressure: 30.42"   Gusts: NA
Location:  39.7°N, 2.7°E
Report Text: LEPA 201730Z VRB01KT 9999 FEW040 12/10 Q1030 NOSIG
Loading
Personal Weather Stations






























Interactive Weather Map New forecast layout! Learn more

10-Day Weather Forecast

Advertisements
Track Severe Weather on mobile